Search for airport 
image banner adimage banner adimage banner ad
image banner ad

47CA - Mountains Community Hospital

Located in Lake Arrowhead, United States

ICAO - 47CA, IATA -

Data provided by Airmate  

General information

Coordinates: N34°15'56" W117°10'4"
Elevation is 5318 feet MSL.
Magnetic variation is 14° East
View others Airports in California

Operational data

Special qualification required
Current time UTC:
Current local time:
Weather at : KSBD - San Bernardino Intl ( 20 km )
METAR: KSBD 221240Z AUTO 00000KT 10SM CLR 18/13 A2994 RMK AO2 T01770131
TAF: KSBD 221137Z 2212/2312 26005KT P6SM BKN200 FM222200 25013G20KT P6SM SCT250 FM230300 24005KT P6SM BKN200
View NOTAMs / SUP AIP / TFR affecting this airport [VIEW]
Communications frequencies: [VIEW]

Runways:

Airport contact information

Address: Lake Arrowhead United States

Satellite view of 47CA